Observations for JERSEY AIRPORT, United Kingdom (EGJJ)

EGJJ 201950Z 18009KT CAVOK 09/07 Q1023  
EGJJ 201920Z 17010KT CAVOK 09/07 Q1022  
EGJJ 201850Z 17010KT CAVOK 09/07 Q1022  
EGJJ 201820Z 16010KT CAVOK 09/07 Q1022  
EGJJ 201750Z 16009KT CAVOK 09/07 Q1022  
EGJJ 201720Z 16005KT CAVOK 09/07 Q1022  
EGJJ 201650Z 16006KT 9999 FEW008 11/07 Q1021
EGJJ 201620Z 17007KT 9999 FEW008 11/08 Q1021
EGJJ 201550Z 17007KT 150V210 9999 FEW008 11/08 Q1021
EGJJ 201520Z 18008KT 9999 FEW008 11/08 Q1022
EGJJ 201450Z 17010KT 140V200 9999 FEW008 11/08 Q1021
EGJJ 201420Z 18010KT 150V210 CAVOK 10/08 Q1022  
EGJJ 201350Z 17010KT 9999 FEW030 10/07 Q1022
EGJJ 201320Z 17011KT 9999 FEW008 10/07 Q1022
EGJJ 201250Z 17012KT 9999 FEW008 SCT034 09/07 Q1022 
EGJJ 201220Z 18011KT 9999 FEW008 09/07 Q1022
EGJJ 201150Z 18012KT 9999 FEW012 09/06 Q1022
EGJJ 201120Z 17013KT 9999 FEW012 09/06 Q1022
EGJJ 201050Z 17013KT 9999 FEW004 08/06 Q1021
EGJJ 201020Z 17014KT 9999 FEW004 08/06 Q1021
EGJJ 200950Z 16012KT 9999 FEW004 08/06 Q1021
EGJJ 200920Z 15013KT 9999 5000SE VCFG FEW000 07/06 Q1021
EGJJ 200850Z 16012KT 9999 6000SE VCFG FEW000 07/06 Q1021
EGJJ 200820Z 16011KT 8000 3500E VCFG FEW000 SCT002 06/05 Q1021  
EGJJ 200750Z 16009KT 5000 2000E VCFG FEW000 SCT003 05/05 Q1020  
EGJJ 200720Z 16009KT 3500 VCFG FEW000 BKN002 05/05 Q1020
EGJJ 200650Z 16010KT 3500 VCFG FEW000 BKN002 05/05 Q1020
EGJJ 200620Z 16010KT 2000 VCFG SCT000 BKN002 05/05 Q1020
EGJJ 200550Z AUTO 16010KT 130V190 2800 BR OVC001/// 05/05 Q1019 
EGJJ 200520Z AUTO 17015KT 4500 HZ BKN001/// BKN002/// 05/05 Q1020   
EGJJ 200450Z AUTO 17015KT 4700 HZ BKN002/// 06/06 Q1019 
EGJJ 200420Z AUTO 17014KT 4800 HZ OVC002/// 06/06 Q1019 
EGJJ 200350Z AUTO 17013KT 5000 OVC002/// 05/05 Q1019
EGJJ 200320Z AUTO 17012KT 2100 FEW000/// 05/05 Q1020
EGJJ 200250Z AUTO 17012KT 5000 BR FEW003/// 06/06 Q1020 
EGJJ 200220Z AUTO 18011KT 9999 9000 NCD 06/05 Q1020 
EGJJ 200150Z AUTO 18011KT 9999 NCD 06/05 Q1020  
EGJJ 200120Z AUTO 19010KT 9999 NCD 07/05 Q1020  
EGJJ 200050Z AUTO 18011KT 9999 NCD 07/06 Q1020  
EGJJ 200020Z AUTO 18011KT 9999 NCD 07/06 Q1020  
EGJJ 192350Z AUTO 19010KT 9999 NCD 07/06 Q1020  
EGJJ 192320Z AUTO 18011KT 9999 NCD 07/06 Q1020  
EGJJ 192250Z AUTO 18012KT 9999 NCD 07/06 Q1020  
EGJJ 192220Z AUTO 18011KT 9999 NCD 07/06 Q1020  
EGJJ 192150Z AUTO 19011KT 9999 BKN046/// 07/06 Q1020
EGJJ 192120Z AUTO 18012KT 9999 OVC044/// 08/07 Q1020
EGJJ 192050Z 18013KT 9999 BKN046 08/06 Q1020
EGJJ 192020Z 17013KT 9999 BKN046 08/07 Q1020
EGJJ 191950Z 16011KT 9999 BKN045 08/06 Q1020
EGJJ 191920Z 16011KT 9999 BKN045 08/06 Q1020